Time;durP1;ratioP1;P1;durP2;ratioP2;P2;SDS_P1;SDS_P2;PMS_P1;PMS_P2;Temp;Humidity;BMP_temperature;BMP_pressure;BME280_temperature;BME280_humidity;BME280_pressure;Samples;Min_cycle;Max_cycle;Signal;HPM_P1;HPM_P2
2023/10/20 00:01:20;;;;;;;23.70;12.27;;;;;;;;;;4913844;29;20043;-61
2023/10/20 00:03:46;;;;;;;19.42;12.13;;;;;;;;;;4880974;29;20036;-62
2023/10/20 00:06:11;;;;;;;20.70;12.35;;;;;;;;;;4914439;29;20492;-61
2023/10/20 00:08:37;;;;;;;19.17;11.48;;;;;;;;;;4914047;29;20521;-60
2023/10/20 00:11:05;;;;;;;19.52;12.20;;;;;;;;;;4912607;29;20201;-61
2023/10/20 00:13:32;;;;;;;19.40;12.05;;;;;;;;;;4930009;29;20139;-60
2023/10/20 00:15:57;;;;;;;18.50;11.55;;;;;;;;;;4928710;29;20073;-62
2023/10/20 00:18:23;;;;;;;20.88;11.35;;;;;;;;;;4933318;29;20067;-62
2023/10/20 00:20:48;;;;;;;21.15;11.30;;;;;;;;;;4930965;29;20086;-62
2023/10/20 00:23:14;;;;;;;19.17;11.27;;;;;;;;;;4926391;29;20477;-63
2023/10/20 00:25:43;;;;;;;18.13;11.07;;;;;;;;;;4947358;29;20031;-63
2023/10/20 00:28:09;;;;;;;17.40;11.00;;;;;;;;;;4948108;29;20031;-61
2023/10/20 00:30:35;;;;;;;19.10;11.18;;;;;;;;;;4948147;29;20047;-61
2023/10/20 00:33:01;;;;;;;18.65;11.45;;;;;;;;;;4937015;29;20551;-61
2023/10/20 00:35:27;;;;;;;20.30;11.13;;;;;;;;;;4945716;29;20465;-61
2023/10/20 00:37:53;;;;;;;17.98;10.90;;;;;;;;;;4942008;29;20179;-62
2023/10/20 00:40:20;;;;;;;17.90;11.20;;;;;;;;;;4945698;29;20532;-61
2023/10/20 00:42:45;;;;;;;18.20;11.20;;;;;;;;;;4948125;28;20499;-62
2023/10/20 00:45:11;;;;;;;16.65;11.07;;;;;;;;;;4956686;29;20039;-61
2023/10/20 00:47:38;;;;;;;18.75;11.07;;;;;;;;;;4954888;29;20035;-61
2023/10/20 00:50:06;;;;;;;17.52;10.93;;;;;;;;;;4948706;29;20860;-61
2023/10/20 00:52:35;;;;;;;19.00;11.57;;;;;;;;;;4937735;29;20399;-61
2023/10/20 00:55:02;;;;;;;23.10;11.60;;;;;;;;;;4949706;29;20751;-61
2023/10/20 00:57:27;;;;;;;21.73;11.52;;;;;;;;;;4957354;29;20043;-61
2023/10/20 00:59:52;;;;;;;20.65;11.93;;;;;;;;;;4951685;29;20023;-61
2023/10/20 01:02:18;;;;;;;22.27;12.18;;;;;;;;;;4954423;29;20023;-61
2023/10/20 01:04:44;;;;;;;22.85;13.18;;;;;;;;;;4953525;29;20110;-63
2023/10/20 01:07:10;;;;;;;21.77;12.98;;;;;;;;;;4954980;29;20141;-61
2023/10/20 01:09:35;;;;;;;23.27;13.35;;;;;;;;;;4956790;29;20058;-61
2023/10/20 01:12:01;;;;;;;21.58;13.25;;;;;;;;;;4950588;29;20055;-61
2023/10/20 01:14:28;;;;;;;25.40;13.82;;;;;;;;;;4954419;29;20038;-61
2023/10/20 01:16:54;;;;;;;28.05;14.40;;;;;;;;;;4954666;29;20130;-61
2023/10/20 01:19:19;;;;;;;26.38;13.57;;;;;;;;;;4952354;29;20035;-61
2023/10/20 01:21:44;;;;;;;29.33;14.20;;;;;;;;;;4951789;29;20491;-63
2023/10/20 01:24:10;;;;;;;26.83;13.52;;;;;;;;;;4944169;29;20030;-61
2023/10/20 01:26:35;;;;;;;25.83;13.75;;;;;;;;;;4930650;29;20043;-61
2023/10/20 01:29:05;;;;;;;27.52;14.27;;;;;;;;;;4948165;29;20141;-61
2023/10/20 01:31:31;;;;;;;26.48;14.75;;;;;;;;;;4953624;29;20035;-61
2023/10/20 01:33:56;;;;;;;25.63;14.23;;;;;;;;;;4952881;29;20027;-61
2023/10/20 01:36:21;;;;;;;27.77;14.48;;;;;;;;;;4953785;29;20035;-61
2023/10/20 01:38:47;;;;;;;23.45;14.35;;;;;;;;;;4955525;29;20060;-63
2023/10/20 01:41:12;;;;;;;24.63;13.93;;;;;;;;;;4938939;29;20490;-61
2023/10/20 01:43:38;;;;;;;25.45;15.02;;;;;;;;;;4948414;29;20039;-63
2023/10/20 01:46:03;;;;;;;26.67;13.80;;;;;;;;;;4950561;29;20548;-64
2023/10/20 01:48:30;;;;;;;25.30;14.32;;;;;;;;;;4954825;29;20047;-61
2023/10/20 01:50:56;;;;;;;27.70;14.63;;;;;;;;;;4955152;29;20035;-61
2023/10/20 01:53:22;;;;;;;23.95;14.02;;;;;;;;;;4952416;29;20050;-61
2023/10/20 01:55:49;;;;;;;28.80;14.55;;;;;;;;;;4944701;28;20027;-63
2023/10/20 01:58:19;;;;;;;28.25;14.73;;;;;;;;;;4953496;29;20054;-61
2023/10/20 02:00:52;;;;;;;25.17;14.20;;;;;;;;;;4953620;29;20357;-63
2023/10/20 02:03:19;;;;;;;27.63;14.52;;;;;;;;;;4953183;29;20742;-61
2023/10/20 02:05:45;;;;;;;27.38;14.52;;;;;;;;;;4946225;29;20034;-63
2023/10/20 02:08:11;;;;;;;27.80;14.38;;;;;;;;;;4950268;29;20031;-61
2023/10/20 02:10:37;;;;;;;29.05;14.73;;;;;;;;;;4933302;29;20339;-61
2023/10/20 02:13:03;;;;;;;30.13;15.50;;;;;;;;;;4949662;29;21709;-61
2023/10/20 02:15:29;;;;;;;29.88;14.88;;;;;;;;;;4941468;29;20040;-61
2023/10/20 02:17:56;;;;;;;24.10;14.27;;;;;;;;;;4935361;29;20031;-62
2023/10/20 02:20:23;;;;;;;23.60;14.40;;;;;;;;;;4953225;29;20039;-61
2023/10/20 02:22:50;;;;;;;28.20;13.98;;;;;;;;;;4950404;29;20386;-63
2023/10/20 02:25:16;;;;;;;24.92;14.52;;;;;;;;;;4940257;29;20528;-61
2023/10/20 02:27:42;;;;;;;26.15;15.00;;;;;;;;;;4934870;29;20040;-61
2023/10/20 02:30:10;;;;;;;27.38;15.38;;;;;;;;;;4939224;29;20051;-61
2023/10/20 02:32:37;;;;;;;25.15;14.32;;;;;;;;;;4952061;29;20117;-62
2023/10/20 02:35:03;;;;;;;26.92;14.52;;;;;;;;;;4949997;29;20210;-61
2023/10/20 02:37:29;;;;;;;25.15;14.20;;;;;;;;;;4939511;29;20043;-62
2023/10/20 02:39:54;;;;;;;26.10;14.55;;;;;;;;;;4949605;29;20031;-61
2023/10/20 02:42:19;;;;;;;25.95;13.90;;;;;;;;;;4937531;29;20435;-61
2023/10/20 02:44:45;;;;;;;25.02;14.27;;;;;;;;;;4953635;29;20034;-61
2023/10/20 02:47:10;;;;;;;27.23;15.10;;;;;;;;;;4953808;29;20031;-61
2023/10/20 02:49:36;;;;;;;24.88;13.75;;;;;;;;;;4957688;29;20069;-62
2023/10/20 02:52:01;;;;;;;25.48;14.32;;;;;;;;;;4953943;29;20041;-62
2023/10/20 02:54:27;;;;;;;26.45;14.27;;;;;;;;;;4937757;29;20460;-62
2023/10/20 02:56:55;;;;;;;25.20;14.60;;;;;;;;;;4949432;29;20373;-62
2023/10/20 02:59:21;;;;;;;23.70;14.00;;;;;;;;;;4951157;29;20066;-61
2023/10/20 03:01:46;;;;;;;25.27;15.00;;;;;;;;;;4952219;29;20074;-61
2023/10/20 03:04:12;;;;;;;25.88;14.95;;;;;;;;;;4927562;29;20491;-61
2023/10/20 03:06:37;;;;;;;25.58;14.80;;;;;;;;;;4951878;28;20062;-62
2023/10/20 03:09:03;;;;;;;24.20;15.25;;;;;;;;;;4948603;29;20110;-61
2023/10/20 03:11:28;;;;;;;24.65;14.88;;;;;;;;;;4949881;29;20037;-61
2023/10/20 03:13:54;;;;;;;27.38;14.57;;;;;;;;;;4946026;29;20114;-62
2023/10/20 03:16:19;;;;;;;28.00;15.10;;;;;;;;;;4931280;29;20476;-61
2023/10/20 03:18:44;;;;;;;26.15;15.85;;;;;;;;;;4935160;29;20082;-61
2023/10/20 03:21:10;;;;;;;25.85;14.80;;;;;;;;;;4948294;29;20032;-61
2023/10/20 03:23:36;;;;;;;28.00;15.45;;;;;;;;;;4944831;29;20110;-62
2023/10/20 03:26:02;;;;;;;28.13;16.08;;;;;;;;;;4931347;29;20449;-62
2023/10/20 03:28:28;;;;;;;32.63;16.67;;;;;;;;;;4937215;29;20086;-61
2023/10/20 03:30:54;;;;;;;32.65;17.20;;;;;;;;;;4930200;29;20039;-63
2023/10/20 03:33:20;;;;;;;35.35;17.67;;;;;;;;;;4929992;29;20051;-62
2023/10/20 03:35:46;;;;;;;29.85;16.88;;;;;;;;;;4951154;29;20031;-62
2023/10/20 03:38:11;;;;;;;34.17;17.50;;;;;;;;;;4951772;29;20035;-62
2023/10/20 03:40:41;;;;;;;35.65;18.50;;;;;;;;;;4949234;29;20051;-62
2023/10/20 03:43:08;;;;;;;39.65;19.05;;;;;;;;;;4919460;29;20042;-62
2023/10/20 03:45:49;;;;;;;36.97;19.38;;;;;;;;;;4950882;29;20477;-62
2023/10/20 03:48:14;;;;;;;;;;;;;;;;;;4948217;29;20201;-62
2023/10/20 03:50:43;;;;;;;40.00;18.83;;;;;;;;;;4947229;29;20365;-62
2023/10/20 03:53:12;;;;;;;43.22;20.20;;;;;;;;;;4949916;29;20086;-63
2023/10/20 03:55:37;;;;;;;46.38;20.90;;;;;;;;;;4930888;29;20065;-65
2023/10/20 03:58:03;;;;;;;41.45;20.27;;;;;;;;;;4951129;29;20073;-66
2023/10/20 04:00:29;;;;;;;46.30;21.42;;;;;;;;;;4948566;29;20038;-65
2023/10/20 04:02:58;;;;;;;42.25;21.15;;;;;;;;;;4950798;29;20039;-65
2023/10/20 04:05:25;;;;;;;46.90;20.90;;;;;;;;;;4932934;29;20056;-65
2023/10/20 04:07:51;;;;;;;48.05;22.30;;;;;;;;;;4951250;29;20023;-65
2023/10/20 04:10:20;;;;;;;47.88;22.05;;;;;;;;;;4948551;29;20460;-65
2023/10/20 04:12:45;;;;;;;46.05;22.13;;;;;;;;;;4944924;29;20047;-65
2023/10/20 04:15:20;;;;;;;53.40;23.17;;;;;;;;;;4945629;29;20114;-66
2023/10/20 04:17:52;;;;;;;51.67;22.73;;;;;;;;;;4938866;29;20043;-65
2023/10/20 04:20:21;;;;;;;52.60;23.48;;;;;;;;;;4933995;29;20036;-66
2023/10/20 04:22:49;;;;;;;54.88;23.50;;;;;;;;;;4934494;29;20111;-65
2023/10/20 04:25:19;;;;;;;50.67;22.67;;;;;;;;;;4933454;29;20505;-65
2023/10/20 04:27:52;;;;;;;44.35;21.27;;;;;;;;;;4934499;29;20032;-65
2023/10/20 04:44:58;;;;;;;46.03;21.30;;;;;;;;;;4932812;29;20099;-65
2023/10/20 04:49:52;;;;;;;45.97;22.00;;;;;;;;;;4933264;29;20063;-65
2023/10/20 05:02:39;;;;;;;42.60;20.85;;;;;;;;;;4934414;29;20101;-65
2023/10/20 05:05:11;;;;;;;39.28;19.45;;;;;;;;;;4932806;29;20039;-65
2023/10/20 05:07:36;;;;;;;41.90;19.88;;;;;;;;;;4933831;29;20098;-65
2023/10/20 05:10:04;;;;;;;39.17;18.95;;;;;;;;;;4932927;29;20079;-65
2023/10/20 05:12:33;;;;;;;41.35;20.45;;;;;;;;;;4916819;29;20150;-65
2023/10/20 05:14:58;;;;;;;37.50;19.35;;;;;;;;;;4939105;29;20035;-65
2023/10/20 05:17:25;;;;;;;36.42;18.63;;;;;;;;;;4951732;29;20046;-62
2023/10/20 05:19:53;;;;;;;40.78;19.85;;;;;;;;;;4953145;29;20031;-63
2023/10/20 05:22:18;;;;;;;37.85;19.90;;;;;;;;;;4925462;29;20127;-62
2023/10/20 05:24:44;;;;;;;40.95;19.08;;;;;;;;;;4932660;29;20413;-63
2023/10/20 05:27:09;;;;;;;40.13;19.70;;;;;;;;;;4936574;29;20472;-63
2023/10/20 05:29:34;;;;;;;36.97;19.15;;;;;;;;;;4927308;29;20028;-64
2023/10/20 05:32:00;;;;;;;39.75;20.13;;;;;;;;;;4930393;29;20032;-66
2023/10/20 05:34:25;;;;;;;43.67;20.52;;;;;;;;;;4936976;29;20086;-63
2023/10/20 05:36:51;;;;;;;36.35;20.05;;;;;;;;;;4937086;29;20035;-65
2023/10/20 05:39:20;;;;;;;34.88;19.17;;;;;;;;;;4933244;29;20195;-65
2023/10/20 05:41:46;;;;;;;36.25;19.27;;;;;;;;;;4938958;29;20071;-63
2023/10/20 05:44:14;;;;;;;36.25;19.13;;;;;;;;;;4936869;29;20126;-64
2023/10/20 05:46:40;;;;;;;39.45;19.83;;;;;;;;;;4955635;29;20071;-62
2023/10/20 05:49:08;;;;;;;39.35;18.58;;;;;;;;;;4934779;29;20036;-64
2023/10/20 05:51:33;;;;;;;38.67;19.63;;;;;;;;;;4929487;29;20044;-64
2023/10/20 05:53:59;;;;;;;36.17;19.13;;;;;;;;;;4936468;29;20032;-65
2023/10/20 05:56:24;;;;;;;37.88;19.15;;;;;;;;;;4935985;29;20036;-64
2023/10/20 05:58:50;;;;;;;34.63;18.27;;;;;;;;;;4919420;29;20147;-63
2023/10/20 06:01:18;;;;;;;34.90;18.50;;;;;;;;;;4935557;29;20024;-62
2023/10/20 06:03:43;;;;;;;36.25;18.60;;;;;;;;;;4943819;29;20039;-64
2023/10/20 06:06:10;;;;;;;33.33;18.33;;;;;;;;;;4954829;29;20503;-62
2023/10/20 06:08:35;;;;;;;32.58;18.02;;;;;;;;;;4943717;29;20111;-63
2023/10/20 06:11:02;;;;;;;31.10;17.52;;;;;;;;;;4935660;29;20628;-65
2023/10/20 06:13:28;;;;;;;34.35;17.75;;;;;;;;;;4918285;29;20401;-61
2023/10/20 06:15:54;;;;;;;35.83;18.73;;;;;;;;;;4949184;29;20452;-62
2023/10/20 06:18:19;;;;;;;31.50;17.58;;;;;;;;;;4944278;29;20497;-63
2023/10/20 06:20:45;;;;;;;34.83;17.63;;;;;;;;;;4919452;29;20023;-63
2023/10/20 06:23:11;;;;;;;33.08;17.02;;;;;;;;;;4935218;29;20476;-64
2023/10/20 06:25:37;;;;;;;33.10;17.10;;;;;;;;;;4936162;29;20110;-62
2023/10/20 06:28:04;;;;;;;32.38;17.80;;;;;;;;;;4935347;29;20386;-65
2023/10/20 06:30:30;;;;;;;30.95;17.77;;;;;;;;;;4935694;29;20060;-63
2023/10/20 06:35:50;;;;;;;32.80;17.52;;;;;;;;;;4938547;29;20507;-61
2023/10/20 06:38:18;;;;;;;31.85;16.88;;;;;;;;;;4918604;29;20040;-61
2023/10/20 06:40:44;;;;;;;30.15;16.88;;;;;;;;;;4927869;29;20035;-62
2023/10/20 06:43:09;;;;;;;32.78;16.35;;;;;;;;;;4950949;29;20523;-62
2023/10/20 06:45:35;;;;;;;31.40;16.52;;;;;;;;;;4937476;29;20038;-64
2023/10/20 06:48:00;;;;;;;30.02;15.40;;;;;;;;;;4932459;29;20038;-65
2023/10/20 06:50:26;;;;;;;33.47;16.40;;;;;;;;;;4934938;29;20043;-62
2023/10/20 06:52:53;;;;;;;29.25;15.18;;;;;;;;;;4934258;29;20369;-64
2023/10/20 06:55:19;;;;;;;28.27;15.85;;;;;;;;;;4934696;29;20031;-68
2023/10/20 06:57:44;;;;;;;28.75;15.23;;;;;;;;;;4934290;29;20032;-64
2023/10/20 07:00:17;;;;;;;28.05;15.90;;;;;;;;;;4934872;29;20031;-64
2023/10/20 07:02:46;;;;;;;28.65;16.30;;;;;;;;;;4917565;29;20036;-68
2023/10/20 07:05:12;;;;;;;27.13;15.65;;;;;;;;;;4934688;29;20029;-67
2023/10/20 07:07:37;;;;;;;25.83;15.95;;;;;;;;;;4934889;29;20039;-68
2023/10/20 07:10:03;;;;;;;27.08;15.98;;;;;;;;;;4918033;29;20035;-65
2023/10/20 07:12:29;;;;;;;23.08;14.50;;;;;;;;;;4917409;29;20051;-66
2023/10/20 07:14:54;;;;;;;24.23;14.18;;;;;;;;;;4934153;29;20337;-66
2023/10/20 07:17:20;;;;;;;23.58;14.40;;;;;;;;;;4934115;29;20076;-66
2023/10/20 07:19:45;;;;;;;23.08;13.65;;;;;;;;;;4934680;29;20042;-65
2023/10/20 07:22:10;;;;;;;23.67;14.63;;;;;;;;;;4933789;29;20031;-66
2023/10/20 07:24:36;;;;;;;21.85;13.45;;;;;;;;;;4934759;29;20036;-65
2023/10/20 07:27:02;;;;;;;24.45;14.73;;;;;;;;;;4934955;29;20035;-65
2023/10/20 07:29:27;;;;;;;22.63;13.80;;;;;;;;;;4934111;29;20516;-64
2023/10/20 07:31:53;;;;;;;24.10;13.73;;;;;;;;;;4934712;29;20036;-65
2023/10/20 07:34:19;;;;;;;24.60;13.93;;;;;;;;;;4932438;29;20042;-64
2023/10/20 07:36:45;;;;;;;25.50;14.68;;;;;;;;;;4933750;29;20032;-64
2023/10/20 07:39:16;;;;;;;23.42;13.52;;;;;;;;;;4933599;29;20091;-64
2023/10/20 07:41:43;;;;;;;23.10;13.38;;;;;;;;;;4934724;29;20118;-63
2023/10/20 07:44:09;;;;;;;20.38;12.73;;;;;;;;;;4916757;29;20031;-63
2023/10/20 07:46:35;;;;;;;21.42;13.48;;;;;;;;;;4934579;29;20032;-62
2023/10/20 07:49:01;;;;;;;20.35;12.13;;;;;;;;;;4929324;29;20035;-63
2023/10/20 07:51:26;;;;;;;20.25;12.60;;;;;;;;;;4913175;29;20032;-62
2023/10/20 07:53:52;;;;;;;21.38;12.02;;;;;;;;;;4930336;29;20504;-62
2023/10/20 07:56:18;;;;;;;20.52;11.73;;;;;;;;;;4933353;29;20107;-63
2023/10/20 07:58:43;;;;;;;17.73;11.30;;;;;;;;;;4935243;29;20123;-63
2023/10/20 08:01:09;;;;;;;19.27;11.05;;;;;;;;;;4933859;29;20024;-64
2023/10/20 08:03:34;;;;;;;18.40;10.70;;;;;;;;;;4917168;29;20385;-62
2023/10/20 08:06:02;;;;;;;17.45;10.60;;;;;;;;;;4934565;29;20061;-61
2023/10/20 08:08:28;;;;;;;17.83;10.48;;;;;;;;;;4932065;29;20027;-63
2023/10/20 08:10:53;;;;;;;16.02;10.80;;;;;;;;;;4934076;29;20034;-62
2023/10/20 08:13:19;;;;;;;16.17;9.93;;;;;;;;;;4915489;29;20052;-63
2023/10/20 08:15:44;;;;;;;13.15;9.57;;;;;;;;;;4884103;29;20068;-62
2023/10/20 08:18:10;;;;;;;16.02;9.60;;;;;;;;;;4895887;29;20064;-62
2023/10/20 08:20:36;;;;;;;13.43;9.52;;;;;;;;;;4879705;29;20091;-61
2023/10/20 08:23:02;;;;;;;14.80;9.25;;;;;;;;;;4896340;29;20032;-62
2023/10/20 08:25:28;;;;;;;13.75;8.65;;;;;;;;;;4897072;29;20063;-62
2023/10/20 08:27:53;;;;;;;13.45;9.35;;;;;;;;;;4915218;29;20067;-62
2023/10/20 08:30:20;;;;;;;13.25;9.00;;;;;;;;;;4896792;29;20036;-60
2023/10/20 08:32:46;;;;;;;12.35;8.40;;;;;;;;;;4911286;29;20031;-64
2023/10/20 08:35:11;;;;;;;11.90;7.93;;;;;;;;;;4898651;29;20036;-63
2023/10/20 08:37:37;;;;;;;10.75;7.55;;;;;;;;;;4896267;29;20116;-61
2023/10/20 08:40:10;;;;;;;11.05;8.05;;;;;;;;;;4905302;29;20122;-64
2023/10/20 08:42:37;;;;;;;12.23;8.38;;;;;;;;;;4914762;29;20385;-62
2023/10/20 08:45:03;;;;;;;11.73;8.05;;;;;;;;;;4890038;29;20036;-64
2023/10/20 08:47:29;;;;;;;11.10;8.15;;;;;;;;;;4897250;29;20024;-62
2023/10/20 08:49:55;;;;;;;10.23;7.95;;;;;;;;;;4885052;29;20040;-63
2023/10/20 08:52:22;;;;;;;10.95;7.40;;;;;;;;;;4897447;29;20044;-63
2023/10/20 08:54:48;;;;;;;13.23;8.15;;;;;;;;;;4885997;29;20075;-62
2023/10/20 08:57:14;;;;;;;11.43;7.88;;;;;;;;;;4895339;29;20119;-62
2023/10/20 08:59:48;;;;;;;11.05;7.85;;;;;;;;;;4901856;29;20073;-62
2023/10/20 09:02:14;;;;;;;11.05;7.45;;;;;;;;;;4914124;29;20032;-64
2023/10/20 09:04:40;;;;;;;10.85;7.43;;;;;;;;;;4904641;29;20084;-63
2023/10/20 09:07:14;;;;;;;11.00;7.40;;;;;;;;;;4884050;29;20481;-62
2023/10/20 09:09:39;;;;;;;10.77;7.22;;;;;;;;;;4915536;29;20028;-62
2023/10/20 09:12:05;;;;;;;9.23;6.93;;;;;;;;;;4922852;29;20051;-63
2023/10/20 09:14:39;;;;;;;10.30;7.50;;;;;;;;;;4935186;29;20113;-62
2023/10/20 09:17:05;;;;;;;10.32;7.40;;;;;;;;;;4936768;29;20532;-61
2023/10/20 09:19:30;;;;;;;10.55;7.05;;;;;;;;;;4936200;29;20040;-62
2023/10/20 09:21:57;;;;;;;11.18;7.05;;;;;;;;;;4936912;29;20060;-62
2023/10/20 09:24:30;;;;;;;8.98;6.93;;;;;;;;;;4935001;29;20040;-63
2023/10/20 09:26:55;;;;;;;8.63;6.50;;;;;;;;;;4936765;29;20087;-62
2023/10/20 09:29:22;;;;;;;9.75;6.90;;;;;;;;;;4936460;29;20047;-63
2023/10/20 09:31:48;;;;;;;8.00;6.50;;;;;;;;;;4936580;29;20028;-60
2023/10/20 09:34:14;;;;;;;8.35;6.43;;;;;;;;;;4935562;29;20060;-63
2023/10/20 09:36:44;;;;;;;10.93;6.40;;;;;;;;;;4936839;29;20032;-61
2023/10/20 09:39:16;;;;;;;8.35;6.60;;;;;;;;;;4918020;29;20448;-66
2023/10/20 09:41:50;;;;;;;8.77;6.72;;;;;;;;;;4920134;29;20449;-64
2023/10/20 09:44:28;;;;;;;7.97;6.70;;;;;;;;;;4922848;29;20490;-63
2023/10/20 09:46:55;;;;;;;9.32;6.72;;;;;;;;;;4936407;29;20559;-62
2023/10/20 09:49:26;;;;;;;8.20;6.40;;;;;;;;;;4935287;29;20164;-63
2023/10/20 09:51:52;;;;;;;8.73;6.78;;;;;;;;;;4935325;29;20035;-62
2023/10/20 09:54:22;;;;;;;9.30;6.20;;;;;;;;;;4935368;29;20533;-62
2023/10/20 09:56:49;;;;;;;11.52;6.90;;;;;;;;;;4938351;29;20040;-66
2023/10/20 09:59:20;;;;;;;8.20;6.53;;;;;;;;;;4947633;29;20050;-62
2023/10/20 10:01:46;;;;;;;8.70;6.80;;;;;;;;;;4919501;29;20062;-60
2023/10/20 10:04:11;;;;;;;7.60;6.35;;;;;;;;;;4935656;29;20102;-66
2023/10/20 10:06:41;;;;;;;8.23;6.25;;;;;;;;;;4936143;29;20027;-60
2023/10/20 10:09:08;;;;;;;10.17;6.33;;;;;;;;;;4936399;29;20396;-61
2023/10/20 10:11:41;;;;;;;9.23;6.18;;;;;;;;;;4935283;29;20051;-61
2023/10/20 10:14:07;;;;;;;9.05;5.93;;;;;;;;;;4918652;29;20042;-60
2023/10/20 10:16:47;;;;;;;7.53;5.80;;;;;;;;;;4917425;29;20488;-60
2023/10/20 10:19:13;;;;;;;8.67;5.93;;;;;;;;;;4932205;29;20042;-63
2023/10/20 10:21:42;;;;;;;7.28;5.78;;;;;;;;;;4935544;29;20110;-61
2023/10/20 10:24:10;;;;;;;8.05;5.90;;;;;;;;;;4940036;29;20469;-61
2023/10/20 10:27:04;;;;;;;8.60;5.95;;;;;;;;;;4944037;29;20027;-61
2023/10/20 10:30:17;;;;;;;7.72;5.65;;;;;;;;;;4937064;29;20437;-62
2023/10/20 10:32:48;;;;;;;8.15;5.65;;;;;;;;;;4936667;29;20047;-62
2023/10/20 10:35:17;;;;;;;8.88;5.65;;;;;;;;;;4943887;29;20044;-62
2023/10/20 10:37:42;;;;;;;8.70;5.60;;;;;;;;;;4938940;29;20032;-62
2023/10/20 10:40:15;;;;;;;6.80;5.57;;;;;;;;;;4935768;29;20046;-62
2023/10/20 10:42:49;;;;;;;7.22;5.68;;;;;;;;;;4935941;29;20479;-62
2023/10/20 10:45:36;;;;;;;6.25;5.18;;;;;;;;;;4933052;29;20039;-64
2023/10/20 10:48:08;;;;;;;7.85;5.40;;;;;;;;;;4919107;29;20043;-63
2023/10/20 10:50:37;;;;;;;7.35;5.63;;;;;;;;;;4935189;29;20071;-62
2023/10/20 10:53:03;;;;;;;8.13;5.28;;;;;;;;;;4943906;29;20122;-63
2023/10/20 10:55:29;;;;;;;6.65;5.00;;;;;;;;;;4941510;29;20534;-63
2023/10/20 10:57:57;;;;;;;7.60;5.53;;;;;;;;;;4948309;29;20477;-62
2023/10/20 11:00:22;;;;;;;7.40;5.10;;;;;;;;;;4934234;29;20035;-63
2023/10/20 11:02:48;;;;;;;7.18;5.32;;;;;;;;;;4928861;29;20047;-63
2023/10/20 11:05:17;;;;;;;7.43;4.90;;;;;;;;;;4947318;29;20553;-62
2023/10/20 11:08:01;;;;;;;6.80;5.20;;;;;;;;;;4943594;29;20097;-61
2023/10/20 11:10:28;;;;;;;6.22;5.30;;;;;;;;;;4933415;29;20119;-62
2023/10/20 11:12:57;;;;;;;7.15;5.40;;;;;;;;;;4932289;29;20138;-63
2023/10/20 11:15:28;;;;;;;6.40;5.00;;;;;;;;;;4934090;29;20421;-61
2023/10/20 11:17:57;;;;;;;6.38;5.00;;;;;;;;;;4934013;29;20039;-62
2023/10/20 11:20:23;;;;;;;5.80;4.70;;;;;;;;;;4933833;29;20050;-62
2023/10/20 11:22:52;;;;;;;6.60;4.78;;;;;;;;;;4917590;29;20024;-61
2023/10/20 11:25:19;;;;;;;5.77;4.73;;;;;;;;;;4933619;29;20454;-62
2023/10/20 11:27:53;;;;;;;6.90;4.85;;;;;;;;;;4934326;29;20101;-62
2023/10/20 11:30:31;;;;;;;6.38;4.75;;;;;;;;;;4933502;29;20028;-61
2023/10/20 11:32:57;;;;;;;6.10;4.80;;;;;;;;;;4917061;29;20033;-61
2023/10/20 11:35:26;;;;;;;6.00;4.95;;;;;;;;;;4939461;29;20487;-62
2023/10/20 11:37:56;;;;;;;6.53;4.47;;;;;;;;;;4934661;29;20378;-62
2023/10/20 11:40:21;;;;;;;6.90;4.80;;;;;;;;;;4933143;29;20469;-62
2023/10/20 11:42:48;;;;;;;6.70;4.47;;;;;;;;;;4934321;29;20127;-61
2023/10/20 11:45:13;;;;;;;5.20;4.25;;;;;;;;;;4932841;29;20032;-63
2023/10/20 11:47:39;;;;;;;6.40;4.60;;;;;;;;;;4933177;29;20032;-62
2023/10/20 11:50:08;;;;;;;5.60;4.30;;;;;;;;;;4916550;29;20161;-61
2023/10/20 11:52:41;;;;;;;6.45;4.57;;;;;;;;;;4916063;29;20035;-64
2023/10/20 11:55:10;;;;;;;5.95;4.45;;;;;;;;;;4934644;29;20103;-61
2023/10/20 11:57:36;;;;;;;5.47;4.60;;;;;;;;;;4933666;29;20040;-61
2023/10/20 12:00:07;;;;;;;6.05;4.80;;;;;;;;;;4933790;29;20031;-61
2023/10/20 12:02:33;;;;;;;;;;;;;;;;;;4933928;29;20212;-61
2023/10/20 12:05:00;;;;;;;7.35;5.07;;;;;;;;;;4917009;29;20279;-62
2023/10/20 12:07:25;;;;;;;9.05;5.50;;;;;;;;;;4933552;29;20035;-62
2023/10/20 12:09:51;;;;;;;6.93;5.53;;;;;;;;;;4934058;29;20032;-61
2023/10/20 12:12:17;;;;;;;8.48;5.55;;;;;;;;;;4926448;29;20051;-61
2023/10/20 12:14:42;;;;;;;8.43;6.20;;;;;;;;;;4914423;29;20028;-63
2023/10/20 12:17:08;;;;;;;8.10;6.00;;;;;;;;;;4896713;29;20032;-63
2023/10/20 12:19:33;;;;;;;9.43;6.20;;;;;;;;;;4900208;29;20405;-63
2023/10/20 12:21:59;;;;;;;8.02;6.40;;;;;;;;;;4896652;29;20127;-62
2023/10/20 12:24:24;;;;;;;8.65;6.15;;;;;;;;;;4914225;29;20065;-63
2023/10/20 12:26:49;;;;;;;8.73;6.10;;;;;;;;;;4897969;29;20068;-62
2023/10/20 12:29:19;;;;;;;7.95;5.82;;;;;;;;;;4910641;29;20044;-63
2023/10/20 12:31:45;;;;;;;8.20;6.13;;;;;;;;;;4897967;29;20032;-63
2023/10/20 12:34:10;;;;;;;8.00;5.47;;;;;;;;;;4914801;29;20438;-63
2023/10/20 12:36:36;;;;;;;8.10;5.80;;;;;;;;;;4914437;29;20063;-66
2023/10/20 12:39:02;;;;;;;7.53;5.70;;;;;;;;;;4916422;29;20040;-66
2023/10/20 12:41:28;;;;;;;8.48;5.85;;;;;;;;;;4904738;29;20470;-66
2023/10/20 12:43:54;;;;;;;8.85;6.22;;;;;;;;;;4907435;29;20040;-66
2023/10/20 12:46:19;;;;;;;8.82;6.40;;;;;;;;;;4917937;29;20104;-63
2023/10/20 12:48:46;;;;;;;9.98;7.03;;;;;;;;;;4909832;29;20469;-66
2023/10/20 12:51:12;;;;;;;9.30;6.72;;;;;;;;;;4919013;29;20055;-62
2023/10/20 12:53:39;;;;;;;8.93;6.68;;;;;;;;;;4918527;29;20032;-62
2023/10/20 12:56:05;;;;;;;7.47;5.88;;;;;;;;;;4901874;29;20024;-67
2023/10/20 12:58:32;;;;;;;7.50;5.88;;;;;;;;;;4917584;29;20039;-60
2023/10/20 13:00:58;;;;;;;10.27;6.60;;;;;;;;;;4918911;29;20040;-65
2023/10/20 13:03:26;;;;;;;9.77;6.95;;;;;;;;;;4916591;29;20036;-62
2023/10/20 13:05:52;;;;;;;9.85;6.65;;;;;;;;;;4918624;29;20032;-63
2023/10/20 13:08:18;;;;;;;8.95;6.85;;;;;;;;;;4917854;29;20088;-64
2023/10/20 13:10:46;;;;;;;9.77;7.10;;;;;;;;;;4918658;29;20042;-61
2023/10/20 13:13:11;;;;;;;8.85;6.90;;;;;;;;;;4902058;29;20055;-62
2023/10/20 13:15:37;;;;;;;8.40;6.40;;;;;;;;;;4918088;29;20028;-63
2023/10/20 13:18:02;;;;;;;9.18;6.72;;;;;;;;;;4919000;29;20068;-66
2023/10/20 13:20:28;;;;;;;9.75;7.22;;;;;;;;;;4917606;29;20096;-66
2023/10/20 13:22:55;;;;;;;11.63;7.68;;;;;;;;;;4918545;29;20032;-64
2023/10/20 13:25:22;;;;;;;11.55;7.43;;;;;;;;;;4917414;29;20043;-64
2023/10/20 13:27:48;;;;;;;13.00;7.97;;;;;;;;;;4918044;29;20043;-65
2023/10/20 13:30:13;;;;;;;13.13;8.35;;;;;;;;;;4917903;29;20032;-64
2023/10/20 13:32:39;;;;;;;11.77;8.27;;;;;;;;;;4917660;29;20032;-63
2023/10/20 13:35:04;;;;;;;12.68;8.70;;;;;;;;;;4917904;29;20028;-65
2023/10/20 13:37:30;;;;;;;14.52;10.40;;;;;;;;;;4917377;29;20139;-63
2023/10/20 13:39:56;;;;;;;17.05;11.13;;;;;;;;;;4918279;29;20039;-64
2023/10/20 13:42:21;;;;;;;15.65;10.57;;;;;;;;;;4916791;29;20064;-63
2023/10/20 13:44:47;;;;;;;14.85;11.52;;;;;;;;;;4929746;29;20091;-64
2023/10/20 13:47:12;;;;;;;16.77;11.18;;;;;;;;;;4936577;29;20032;-64
2023/10/20 13:49:38;;;;;;;15.73;10.88;;;;;;;;;;4935847;29;20233;-62
2023/10/20 13:52:03;;;;;;;16.00;12.10;;;;;;;;;;4936338;29;20036;-65
2023/10/20 13:54:29;;;;;;;17.80;12.40;;;;;;;;;;4902925;29;20023;-64
2023/10/20 13:56:54;;;;;;;18.10;13.05;;;;;;;;;;4936721;29;20433;-64
2023/10/20 13:59:20;;;;;;;19.13;13.15;;;;;;;;;;4936118;29;20042;-65
2023/10/20 14:01:46;;;;;;;18.50;13.02;;;;;;;;;;4926775;29;20488;-71
2023/10/20 14:04:11;;;;;;;22.80;13.30;;;;;;;;;;4917605;29;20031;-70
2023/10/20 14:06:37;;;;;;;19.73;13.60;;;;;;;;;;4907409;29;20238;-70
2023/10/20 14:09:03;;;;;;;19.58;14.00;;;;;;;;;;4917480;29;20040;-61
2023/10/20 14:11:29;;;;;;;17.88;13.23;;;;;;;;;;4916993;29;20120;-61
2023/10/20 14:13:54;;;;;;;19.20;13.50;;;;;;;;;;4944432;29;20067;-61
2023/10/20 14:16:19;;;;;;;18.80;13.25;;;;;;;;;;4934770;29;20035;-62
2023/10/20 14:18:45;;;;;;;20.55;13.48;;;;;;;;;;4934788;29;20373;-61
2023/10/20 14:21:10;;;;;;;17.67;12.27;;;;;;;;;;4935713;29;20039;-61
2023/10/20 14:23:36;;;;;;;17.33;12.10;;;;;;;;;;4934126;29;20959;-60
2023/10/20 14:26:01;;;;;;;17.20;12.38;;;;;;;;;;4935924;29;20055;-61
2023/10/20 14:28:33;;;;;;;16.45;12.27;;;;;;;;;;4934374;29;20461;-61
2023/10/20 14:31:03;;;;;;;17.95;12.43;;;;;;;;;;4928708;29;20031;-60
2023/10/20 14:33:29;;;;;;;17.55;12.27;;;;;;;;;;4935390;29;20040;-60
2023/10/20 14:35:56;;;;;;;16.45;11.48;;;;;;;;;;4935519;29;20110;-61
2023/10/20 14:38:23;;;;;;;15.50;11.57;;;;;;;;;;4934136;29;20074;-62
2023/10/20 14:41:02;;;;;;;17.20;11.45;;;;;;;;;;4934424;29;20552;-63
2023/10/20 14:43:28;;;;;;;16.83;11.63;;;;;;;;;;4934554;29;20032;-63
2023/10/20 14:45:57;;;;;;;16.85;11.80;;;;;;;;;;4935484;29;20040;-69
2023/10/20 14:48:22;;;;;;;18.00;12.02;;;;;;;;;;4934948;29;20039;-64
2023/10/20 14:50:47;;;;;;;16.25;11.65;;;;;;;;;;4935738;29;20032;-63
2023/10/20 14:53:13;;;;;;;16.20;12.15;;;;;;;;;;4917879;29;20070;-62
2023/10/20 14:55:38;;;;;;;18.13;13.45;;;;;;;;;;4934476;29;20032;-63